Latest Coastal Weather Observations for Cooktown

IDQ60701

Issued at 7:31 am EST Friday 3 July 2015 (issued every 10 minutes, with the page automatically refreshed every 10 minutes)

About coastal observations | Map of coastal stations | Coastal observations for QLD | Marine services | Other Formats
Station Details ID: 031209 Name: COOKTOWN AIRPORT Lat: -15.45 Lon: 145.19 Height: 4.8 m
Data from the previous 72 hours. | See also: Recent months at Cooktown
Date/Time
EST
Temp

°C
Wind Pressure Rain
since 9am
mm
Weather Cloud Vis
km
Sea
Height
m
Swell
Dir
 
Speed
knots
Gust
knots
hPa Trend Height
m
Period
s
Dir
03/07:30am 15.8 W 3 4 1016.7 - 0.0 - Partly cloudy 10 - - - -
03/07:00am 15.1 WNW 4 6 1016.6 - 0.0 - - 10 - - - -
03/06:30am 15.1 CALM 0 0 1016.3 - 0.0 - - 10 - - - -
03/06:00am 15.3 CALM 0 0 1016.0 - 0.0 - - 6 - - - -
03/05:30am 16.2 CALM 0 0 1015.8 - 0.0 - - 10 - - - -
03/05:00am 15.9 WNW 1 4 1015.7 - 0.0 - - 10 - - - -
03/04:30am 16.4 WNW 3 4 1015.7 - 0.0 - - 10 - - - -
03/04:00am 16.7 CALM 0 0 1015.7 - 0.0 - - 8 - - - -
03/03:30am 17.3 CALM 0 1 1015.8 - 0.0 - - 10 - - - -
03/03:00am 17.8 CALM 0 0 1016.0 - 0.0 - - 10 - - - -
03/02:30am 18.2 CALM 0 0 1016.2 - 0.0 - - 10 - - - -
03/02:00am 19.0 CALM 0 0 1016.5 - 0.0 - - 10 - - - -
03/01:30am 20.3 SE 4 6 1016.8 - 0.0 - - 10 - - - -
03/01:00am 21.0 SE 5 7 1017.0 - 0.0 - Partly cloudy 10 - - - -
03/12:30am 21.5 SE 5 8 1017.3 - 0.0 - Partly cloudy 10 - - - -
03/12:00am 21.1 SE 2 7 1017.4 - 0.0 - Partly cloudy 10 - - - -
 
Date/Time
EST
Temp

°C
Wind Pressure Rain
since 9am
mm
Weather Cloud Vis
km
Sea
Height
m
Swell
Dir
 
Speed
knots
Gust
knots
hPa Trend Height
m
Period
s
Dir
02/11:30pm 21.4 SE 5 8 1017.5 - 0.0 - - 10 - - - -
02/11:00pm 21.6 SE 5 7 1017.7 - 0.0 - - 10 - - - -
02/10:30pm 21.5 SE 4 7 1017.9 - 0.0 - - 10 - - - -
02/10:00pm 22.1 SE 7 11 1017.9 - 0.0 - - 10 - - - -
02/09:30pm 22.0 ESE 8 13 1018.0 - 0.0 - Partly cloudy 10 - - - -
02/09:00pm 22.4 SE 9 14 1018.1 - 0.0 - Mostly clear 10 - - - -
02/08:30pm 22.1 SE 7 12 1017.9 - 0.0 - Partly cloudy 10 - - - -
02/08:09pm 22.1 SE 7 12 1017.8 - 0.0 - Partly cloudy 10 - - - -
02/08:00pm 22.2 SE 9 13 1017.7 - 0.0 - Partly cloudy 10 - - - -
02/07:50pm 22.2 SE 9 14 1017.6 - 0.0 - Partly cloudy 10 - - - -
02/07:30pm 22.2 SE 9 13 1017.4 - 0.0 - Partly cloudy 10 - - - -
02/07:00pm 22.5 SE 8 12 1017.0 - 0.0 - Partly cloudy 10 - - - -
02/06:30pm 22.4 SE 8 15 1016.8 - 0.0 - Partly cloudy 10 - - - -
02/06:00pm 22.4 SE 9 15 1016.6 - 0.0 - - 10 - - - -
02/05:30pm 23.1 SE 11 15 1016.6 - 0.0 - - 10 - - - -
02/05:00pm 23.7 SE 10 17 1016.3 - 0.0 - - 10 - - - -
02/04:30pm 24.1 SE 13 22 1016.3 - 0.0 - - 10 - - - -
02/04:00pm 24.7 SE 13 21 1016.2 - 0.0 - - 10 - - - -
02/03:30pm 24.6 ESE 15 24 1016.2 - 0.0 - - 10 - - - -
02/03:00pm 25.0 SE 13 20 1016.1 F 0.0 Fine Mostly clear 40 - - - -
02/02:30pm 25.2 SE 14 21 1016.5 - 0.0 - - 10 - - - -
02/02:00pm 24.9 SE 14 21 1017.0 - 0.0 - Partly cloudy 10 - - - -
02/01:30pm 25.6 SE 11 18 1017.3 - 0.0 - Partly cloudy 10 - - - -
02/01:00pm 25.6 SE 13 20 1017.7 - 0.0 - Partly cloudy 10 - - - -
02/12:30pm 25.7 ESE 14 22 1018.2 - 0.0 - Partly cloudy 10 - - - -
02/12:00pm 25.4 SE 14 21 1018.6 - 0.0 - Mostly clear 10 - - - -
02/11:30am 24.8 SE 14 22 1018.9 - 0.0 - Partly cloudy 10 - - - -
02/11:00am 24.8 SE 13 19 1019.3 - 0.0 - - 10 - - - -
02/10:30am 24.6 SE 13 22 1019.5 - 0.0 - Partly cloudy 10 - - - -
02/10:00am 24.0 SE 14 21 1019.8 - 0.0 - Partly cloudy 10 - - - -
02/09:30am 24.0 SE 13 20 1020.0 - 0.0 - Partly cloudy 10 - - - -
02/09:00am 23.6 SE 12 19 1019.6 R 0.0 Fine Mostly clear 30 - - - -
02/08:30am 23.5 SE 10 16 1019.2 - 0.0 - - 10 - - - -
02/08:00am 22.8 SE 11 17 1018.7 - 0.0 - - 10 - - - -
02/07:30am 22.1 SE 9 15 1018.4 - 0.0 - - 10 - - - -
02/07:00am 21.8 SE 9 14 1018.2 - 0.0 - - 10 - - - -
02/06:30am 21.8 SE 9 14 1017.9 - 0.0 - - 10 - - - -
02/06:00am 21.8 SE 10 14 1017.7 - 0.0 - - 10 - - - -
02/05:30am 22.0 SE 9 16 1017.6 - 0.0 - - 10 - - - -
02/05:00am 22.0 SE 9 15 1017.2 - 0.0 - - 10 - - - -
02/04:30am 22.2 SE 10 15 1017.1 - 0.0 - - 10 - - - -
02/04:00am 22.0 SE 9 14 1017.0 - 0.0 - Partly cloudy 10 - - - -
02/03:30am 22.4 SE 9 13 1017.2 - 0.0 - Partly cloudy 10 - - - -
02/03:00am 22.6 SE 9 14 1017.3 - 0.0 - Mostly cloudy 10 - - - -
02/02:30am 20.6 S 3 5 1017.5 - 0.0 - Partly cloudy 10 - - - -
02/02:00am 22.0 SSE 6 10 1017.7 - 0.0 - Cloudy 10 - - - -
02/01:30am 22.0 SSE 6 9 1018.2 - 0.0 - Partly cloudy 10 - - - -
02/01:00am 22.4 SE 7 10 1018.6 - 0.0 - Cloudy 10 - - - -
02/12:30am 22.1 SE 7 11 1018.9 - 0.0 - Cloudy 10 - - - -
02/12:00am 22.0 SE 7 11 1019.1 - 0.0 - Partly cloudy 10 - - - -
 
Date/Time
EST
Temp

°C
Wind Pressure Rain
since 9am
mm
Weather Cloud Vis
km
Sea
Height
m
Swell
Dir
 
Speed
knots
Gust
knots
hPa Trend Height
m
Period
s
Dir
01/11:30pm 21.9 SE 8 15 1019.4 - 0.0 - - 10 - - - -
01/11:00pm 22.2 SE 10 16 1019.7 - 0.0 - - 10 - - - -
01/10:30pm 22.0 ESE 9 13 1019.8 - 0.0 - - 10 - - - -
01/10:00pm 22.0 ESE 10 14 1019.8 - 0.0 - - 10 - - - -
01/09:30pm 21.8 SE 9 11 1019.7 - 0.0 - - 10 - - - -
01/09:00pm 22.2 SE 9 14 1019.5 - 0.0 - - 10 - - - -
01/08:30pm 22.2 SE 10 14 1019.3 - 0.0 - - 10 - - - -
01/08:00pm 22.1 SE 8 11 1019.3 - 0.0 - - 10 - - - -
01/07:30pm 22.2 SSE 10 16 1019.0 - 0.0 - - 10 - - - -
01/07:00pm 22.4 SE 10 14 1018.5 - 0.0 - - 10 - - - -
01/06:30pm 22.5 SE 10 14 1018.3 - 0.0 - - 10 - - - -
01/06:00pm 22.6 SE 8 12 1018.0 - 0.0 - - 10 - - - -
01/05:30pm 23.1 SE 10 15 1017.8 - 0.0 - Partly cloudy 10 - - - -
01/05:00pm 23.5 SE 12 20 1017.5 - 0.0 - Cloudy 10 - - - -
01/04:30pm 23.9 SE 12 19 1017.2 - 0.0 - Cloudy 10 - - - -
01/04:00pm 24.1 SE 14 22 1017.0 - 0.0 - Cloudy 10 - - - -
01/03:30pm 24.4 SE 14 21 1016.9 - 0.0 - Cloudy 10 - - - -
01/03:12pm 24.6 SE 15 25 1016.9 - 0.0 - Partly cloudy 10 - - - -
01/03:00pm 24.6 SE 16 23 1017.0 S 0.0 Fine Partly cloudy 30 - - - -
01/02:30pm 25.2 SE 14 22 1017.0 - 0.0 - Partly cloudy 10 - - - -
01/02:00pm 25.2 SE 15 22 1017.2 - 0.0 - Partly cloudy 10 - - - -
01/01:30pm 25.3 SE 16 25 1017.6 - 0.0 - Partly cloudy 10 - - - -
01/01:25pm 25.1 SE 15 25 1017.6 - 0.0 - Partly cloudy 10 - - - -
01/01:00pm 24.6 SE 14 23 1018.0 - 0.0 - Partly cloudy 10 - - - -
01/12:38pm 24.5 SE 15 25 1018.4 - 0.0 - Partly cloudy 10 - - - -
01/12:30pm 25.0 SE 12 18 1018.5 - 0.0 - Partly cloudy 10 - - - -
01/12:00pm 24.7 SE 15 24 1018.8 - 0.0 - Mostly clear 10 - - - -
01/11:30am 24.7 SE 16 26 1019.1 - 0.0 - Partly cloudy 10 - - - -
01/11:25am 24.9 SE 15 26 1019.1 - 0.0 - Partly cloudy 10 - - - -
01/11:00am 24.7 SE 15 24 1019.3 - 0.0 - Partly cloudy 10 - - - -
01/10:54am 24.7 SE 15 23 1019.3 - 0.0 - Partly cloudy 10 - - - -
01/10:30am 24.3 SSE 15 23 1019.5 - 0.0 - Partly cloudy 10 - - - -
01/10:27am 24.8 SE 15 23 1019.5 - 0.0 - Partly cloudy 10 - - - -
01/10:00am 23.7 SE 15 23 1019.6 - 0.0 - Partly cloudy 10 - - - -
01/09:38am 23.3 ESE 15 26 1019.6 - 0.0 - Partly cloudy 10 - - - -
01/09:30am 23.2 SE 15 23 1019.6 - 0.0 - Partly cloudy 10 - - - -
01/09:00am 23.0 SE 13 20 1019.5 R 3.4 Fine Partly cloudy 30 - - - -
01/08:43am 22.8 SE 15 25 1019.3 - 3.4 - Partly cloudy 10 - - - -
01/08:30am 22.8 SE 12 21 1019.2 - 3.4 - Partly cloudy 10 - - - -
01/08:00am 22.7 SE 12 20 1018.8 - 3.4 - Partly cloudy 10 - - - -
01/07:33am 22.7 SE 15 27 1018.5 - 3.4 - Partly cloudy 10 - - - -
01/07:30am 22.5 SE 13 19 1018.5 - 3.4 - Partly cloudy 10 - - - -
01/07:00am 22.4 SE 12 18 1018.4 - 3.4 - Partly cloudy 10 - - - -
01/06:30am 22.5 SE 13 23 1018.0 - 3.4 - Partly cloudy 10 - - - -
01/06:00am 22.6 SE 12 18 1017.8 - 3.4 - Partly cloudy 10 - - - -
01/05:30am 22.4 SE 12 20 1017.6 - 3.4 - Partly cloudy 10 - - - -
01/05:00am 22.2 SE 11 17 1017.6 - 3.4 - - 10 - - - -
01/04:30am 22.4 SE 13 19 1017.6 - 3.4 - Partly cloudy 10 - - - -
01/04:00am 22.5 SE 11 19 1017.4 - 3.4 - Partly cloudy 10 - - - -
01/03:30am 22.3 SE 13 19 1017.4 - 3.4 - Partly cloudy 8 - - - -
01/03:00am 22.9 SE 11 19 1017.3 - 3.4 - Partly cloudy 10 - - - -
01/02:30am 22.9 SE 12 19 1017.4 - 3.4 - - 10 - - - -
01/02:00am 22.7 SE 9 14 1017.4 - 3.4 - - 10 - - - -
01/01:30am 23.0 SE 11 18 1017.9 - 3.4 - - 10 - - - -
01/01:00am 23.0 SE 10 17 1018.2 - 3.4 - Partly cloudy 10 - - - -
01/12:30am 23.2 SSE 9 14 1018.2 - 3.4 - Partly cloudy 10 - - - -
01/12:00am 23.1 SSE 8 13 1018.4 - 3.4 - Cloudy 10 - - - -
 
Date/Time
EST
Temp

°C
Wind Pressure Rain
since 9am
mm
Weather Cloud Vis
km
Sea
Height
m
Swell
Dir
 
Speed
knots
Gust
knots
hPa Trend Height
m
Period
s
Dir
30/11:30pm 23.1 SE 10 16 1018.6 - 3.4 - Partly cloudy 10 - - - -
30/11:00pm 23.5 SE 9 13 1018.8 - 3.4 - Partly cloudy 10 - - - -
30/10:30pm 23.8 ESE 10 14 1018.7 - 3.4 - Partly cloudy 10 - - - -
30/10:00pm 23.9 SE 10 16 1018.9 - 3.4 - Partly cloudy 10 - - - -
30/09:30pm 23.9 SE 11 15 1018.9 - 3.4 - Partly cloudy 10 - - - -
30/09:00pm 23.9 SE 11 16 1018.7 - 3.4 - - 10 - - - -
30/08:30pm 23.9 SE 9 16 1018.4 - 3.4 - Partly cloudy 10 - - - -
30/08:00pm 24.0 SE 10 17 1018.1 - 3.4 - Partly cloudy 10 - - - -
30/07:30pm 24.1 ESE 11 17 1017.8 - 3.4 - Partly cloudy 10 - - - -
30/07:00pm 24.0 SE 10 13 1017.5 - 3.4 - Partly cloudy 10 - - - -
30/06:30pm 24.0 SE 9 15 1017.2 - 3.4 - Partly cloudy 10 - - - -
30/06:00pm 24.0 ESE 9 14 1017.0 - 3.4 - Cloudy 10 - - - -
30/05:30pm 24.2 ESE 10 17 1016.8 - 3.4 - Partly cloudy 10 - - - -
30/05:00pm 24.4 SE 11 18 1016.6 - 3.4 - Partly cloudy 10 - - - -
30/04:30pm 24.7 SE 13 20 1016.4 - 3.4 - Partly cloudy 10 - - - -
30/04:00pm 24.7 SE 12 18 1016.2 - 3.4 - Partly cloudy 10 - - - -
30/03:30pm 25.8 ESE 12 18 1016.1 - 3.4 - Partly cloudy 10 - - - -
30/03:13pm 25.6 ESE 14 22 1016.2 - 3.4 - Partly cloudy 10 - - - -
30/03:00pm 25.6 ESE 14 23 1016.3 R 3.4 Fine Partly cloudy 30 - - - -
30/02:52pm 26.3 ESE 12 19 1016.3 - 3.4 - Partly cloudy 10 - - - -
30/02:30pm 26.1 ESE 15 21 1016.2 - 3.4 - Partly cloudy 10 - - - -
30/02:00pm 25.8 ESE 15 23 1016.2 - 3.4 - Partly cloudy 10 - - - -
30/01:57pm 26.1 ESE 15 25 1016.2 - 3.4 - Partly cloudy 10 - - - -
30/01:53pm 25.7 ESE 16 25 1016.2 - 3.4 - Partly cloudy 10 - - - -
30/01:48pm 25.8 ESE 15 25 1016.3 - 3.4 - Partly cloudy 10 - - - -
30/01:43pm 25.9 ESE 13 22 1016.3 - 3.4 - Partly cloudy 10 - - - -
30/01:30pm 25.4 E 12 19 1016.4 - 3.4 - Partly cloudy 10 - - - -
30/01:00pm 23.4 E 7 9 1016.9 - 3.4 - Partly cloudy 10 - - - -
30/12:56pm 23.5 E 8 11 1017.0 - 3.4 - Partly cloudy 10 - - - -
30/12:32pm 22.5 ENE 17 22 1017.5 - 1.0 - Partly cloudy 4 - - - -
30/12:30pm 23.6 E 17 22 1017.4 - 0.2 - Partly cloudy 10 - - - -
30/12:00pm 25.7 SE 10 15 1017.5 - 0.2 - Partly cloudy 10 - - - -
30/11:30am 23.8 ESE 12 19 1018.2 - 0.0 - Partly cloudy 10 - - - -
30/11:03am 24.7 E 17 28 1018.4 - 0.0 - Partly cloudy 10 - - - -
30/11:00am 24.5 E 17 25 1018.4 - 0.0 - Partly cloudy 10 - - - -
30/10:30am 25.1 ESE 15 21 1018.3 - 0.0 - Partly cloudy 10 - - - -
30/10:00am 25.9 ESE 13 20 1018.3 - 0.0 - Partly cloudy 10 - - - -
30/09:30am 25.0 SE 9 15 1018.2 - 0.0 - Partly cloudy 10 - - - -
30/09:00am 25.2 ESE 10 15 1018.0 R 6.8 Fine Mostly cloudy 30 - - - -
30/08:30am 23.6 SSE 4 7 1017.8 - 6.8 - Partly cloudy 10 - - - -
30/08:00am 23.4 SE 6 10 1017.4 - 6.8 - Partly cloudy 10 - - - -

Other Formats:

Comma delimited format used in spreadsheet applications
http://www.bom.gov.au/fwo/IDQ60701/IDQ60701.95283.axf

JavaScript Object Notation format (JSON) in row-major order
http://www.bom.gov.au/fwo/IDQ60701/IDQ60701.95283.json